Time;durP1;ratioP1;P1;durP2;ratioP2;P2;SDS_P1;SDS_P2;PMS_P1;PMS_P2;Temp;Humidity;BMP_temperature;BMP_pressure;BME280_temperature;BME280_humidity;BME280_pressure;Samples;Min_cycle;Max_cycle;Signal;HPM_P1;HPM_P2
2023/06/01 00:00:09;;;;;;;4.63;1.70;;;;;;;19.63;28.73;101707.72;5028080;28;20122;-79
2023/06/01 00:02:41;;;;;;;3.88;1.50;;;;;;;19.61;29.04;101704.25;5028313;28;20048;-79
2023/06/01 00:05:10;;;;;;;3.75;1.70;;;;;;;19.56;28.74;101711.34;5017516;28;20053;-79
2023/06/01 00:07:38;;;;;;;3.83;1.63;;;;;;;19.53;28.74;101706.16;5056373;28;20033;-77
2023/06/01 00:10:07;;;;;;;3.30;1.60;;;;;;;19.49;29.00;101713.94;5034290;28;20045;-78
2023/06/01 00:12:35;;;;;;;3.20;1.70;;;;;;;19.45;29.31;101707.03;5026306;28;20107;-79
2023/06/01 00:15:03;;;;;;;4.15;1.70;;;;;;;19.41;28.83;101710.31;5029625;28;20079;-79
2023/06/01 00:17:32;;;;;;;2.88;1.95;;;;;;;19.35;28.91;101706.31;5037889;28;20057;-81
2023/06/01 00:20:07;;;;;;;3.78;1.55;;;;;;;19.35;29.36;101709.09;5025452;28;20055;-81
2023/06/01 00:22:38;;;;;;;3.85;1.50;;;;;;;19.29;29.08;101708.91;5039590;28;20413;-80
2023/06/01 00:25:08;;;;;;;3.33;1.80;;;;;;;19.23;29.10;101699.34;5031038;28;20073;-81
2023/06/01 00:27:36;;;;;;;3.17;1.52;;;;;;;19.22;29.62;101705.94;5027171;28;20061;-81
2023/06/01 00:30:06;;;;;;;3.55;1.65;;;;;;;19.19;29.59;101707.13;5023630;28;20053;-81
2023/06/01 00:32:34;;;;;;;3.80;1.70;;;;;;;19.17;29.45;101711.09;5030570;28;20037;-81
2023/06/01 00:35:04;;;;;;;2.53;1.40;;;;;;;19.15;29.79;101713.16;5024199;28;20046;-81
2023/06/01 00:37:32;;;;;;;3.90;1.52;;;;;;;19.10;29.82;101707.28;5030357;28;20452;-81
2023/06/01 00:40:00;;;;;;;4.40;1.60;;;;;;;19.10;30.14;101715.59;5029709;28;20419;-79
2023/06/01 00:42:28;;;;;;;4.43;1.70;;;;;;;19.06;29.90;101715.06;5034165;28;20125;-78
2023/06/01 00:44:58;;;;;;;4.32;1.85;;;;;;;19.04;30.32;101716.28;5030768;28;20061;-79
2023/06/01 00:47:27;;;;;;;3.25;1.85;;;;;;;19.00;29.80;101707.41;5031896;28;20052;-79
2023/06/01 00:49:55;;;;;;;4.20;1.80;;;;;;;18.99;30.38;101714.00;5030330;28;20068;-81
2023/06/01 00:52:25;;;;;;;2.33;1.55;;;;;;;18.99;30.36;101714.00;5022401;28;20046;-80
2023/06/01 00:54:53;;;;;;;4.15;1.83;;;;;;;18.96;30.21;101710.72;5022905;28;20103;-81
2023/06/01 00:57:26;;;;;;;4.72;1.98;;;;;;;18.95;30.20;101711.75;5042493;28;20352;-80
2023/06/01 00:59:55;;;;;;;4.25;2.33;;;;;;;18.92;30.73;101710.16;5033217;28;20119;-79
2023/06/01 01:02:23;;;;;;;3.92;1.85;;;;;;;18.89;30.70;101711.38;5040534;28;20049;-79
2023/06/01 01:04:52;;;;;;;5.55;2.40;;;;;;;18.85;30.39;101711.88;5040851;28;20067;-81
2023/06/01 01:07:33;;;;;;;6.28;2.20;;;;;;;18.86;30.94;101710.84;5022098;28;20046;-79
2023/06/01 01:10:13;;;;;;;3.70;2.28;;;;;;;18.81;31.12;101711.34;5017149;28;20049;-79
2023/06/01 01:12:48;;;;;;;3.40;1.98;;;;;;;18.76;31.58;101710.97;5019597;28;20080;-81
2023/06/01 01:15:23;;;;;;;3.40;1.90;;;;;;;18.73;31.57;101718.75;5015212;28;20051;-80
2023/06/01 01:17:56;;;;;;;3.40;1.95;;;;;;;18.71;30.94;101715.31;5007532;28;20088;-80
2023/06/01 01:20:29;;;;;;;4.32;2.40;;;;;;;18.66;31.42;101707.47;5030033;28;20509;-80
2023/06/01 01:23:24;;;;;;;4.13;2.33;;;;;;;18.62;32.08;101721.84;5022832;28;20072;-80
2023/06/01 01:26:22;;;;;;;5.22;2.40;;;;;;;18.55;31.81;101718.88;5012672;28;20059;-81
2023/06/01 01:28:54;;;;;;;4.10;2.35;;;;;;;18.54;31.88;101717.13;5011895;28;20041;-81
2023/06/01 01:31:24;;;;;;;4.90;2.63;;;;;;;18.52;31.42;101719.19;5018695;28;20102;-80
2023/06/01 01:33:55;;;;;;;4.00;2.40;;;;;;;18.49;31.60;101711.19;5013754;28;20069;-80
2023/06/01 01:36:25;;;;;;;4.35;2.35;;;;;;;18.45;32.05;101713.41;5015537;28;20052;-80
2023/06/01 01:38:53;;;;;;;4.07;2.47;;;;;;;18.42;31.81;101712.88;5033883;28;20034;-80
2023/06/01 01:41:21;;;;;;;5.03;2.50;;;;;;;18.40;32.17;101718.56;5033730;28;20057;-81
2023/06/01 01:43:51;;;;;;;4.80;2.60;;;;;;;18.38;32.03;101717.03;5018573;28;20053;-80
2023/06/01 01:46:25;;;;;;;4.40;2.55;;;;;;;18.38;32.67;101705.94;5016829;28;20107;-80
2023/06/01 01:49:07;;;;;;;4.13;2.30;;;;;;;18.34;33.19;101708.16;5012376;28;20038;-79
2023/06/01 01:51:41;;;;;;;6.17;2.50;;;;;;;18.27;32.24;101706.19;5011187;28;20049;-81
2023/06/01 01:54:10;;;;;;;4.32;2.38;;;;;;;18.26;32.31;101707.22;5029110;28;20060;-79
2023/06/01 01:56:38;;;;;;;5.15;2.75;;;;;;;18.25;32.13;101705.50;5024644;28;20072;-78
2023/06/01 01:59:08;;;;;;;5.60;2.70;;;;;;;18.24;32.22;101710.16;5017826;28;20275;-80
2023/06/01 02:01:40;;;;;;;4.78;2.33;;;;;;;18.22;32.38;101703.06;5013912;28;20058;-81
2023/06/01 02:04:08;;;;;;;4.93;2.85;;;;;;;18.18;32.58;101709.94;5014993;28;20068;-80
2023/06/01 02:06:36;;;;;;;4.25;2.35;;;;;;;18.19;32.49;101711.69;5028745;28;20045;-81
2023/06/01 02:09:06;;;;;;;5.45;2.88;;;;;;;18.16;32.67;101707.34;5010106;28;20052;-80
2023/06/01 02:11:35;;;;;;;5.70;2.97;;;;;;;18.16;32.58;101710.13;5008466;28;20164;-81
2023/06/01 02:14:03;;;;;;;5.32;2.97;;;;;;;18.14;32.63;101712.19;5020320;28;20041;-79
2023/06/01 02:16:32;;;;;;;5.10;2.60;;;;;;;18.12;32.95;101712.34;5013584;28;20831;-80
2023/06/01 02:19:02;;;;;;;6.13;2.85;;;;;;;18.08;32.95;101708.16;5016019;28;20052;-81
2023/06/01 02:21:30;;;;;;;4.82;2.70;;;;;;;18.06;32.83;101710.22;5020876;28;20076;-80
2023/06/01 02:24:05;;;;;;;6.18;3.20;;;;;;;18.02;33.28;101707.94;5024308;28;20123;-80
2023/06/01 02:26:33;;;;;;;4.10;2.83;;;;;;;18.01;32.89;101707.06;5016876;28;20092;-81
2023/06/01 02:29:04;;;;;;;5.07;3.15;;;;;;;18.00;33.34;101718.31;5025247;28;20083;-80
2023/06/01 02:31:35;;;;;;;5.55;3.00;;;;;;;17.99;33.05;101711.91;5027100;28;20105;-80
2023/06/01 02:34:04;;;;;;;5.97;3.08;;;;;;;17.94;33.46;101711.53;5032186;28;20128;-81
2023/06/01 02:36:32;;;;;;;5.95;3.05;;;;;;;17.92;33.08;101713.59;5028561;28;20088;-80
2023/06/01 02:39:00;;;;;;;5.18;3.08;;;;;;;17.91;33.16;101710.97;5023277;28;20037;-81
2023/06/01 02:41:28;;;;;;;5.55;3.13;;;;;;;17.87;33.10;101706.81;5018471;28;20056;-80
2023/06/01 02:43:56;;;;;;;4.32;2.88;;;;;;;17.85;33.10;101714.41;5025745;28;20045;-80
2023/06/01 02:46:24;;;;;;;4.82;3.25;;;;;;;17.81;33.45;101716.63;5035581;28;20128;-78
2023/06/01 02:48:53;;;;;;;5.95;3.13;;;;;;;17.82;33.32;101714.72;5030805;28;20042;-79
2023/06/01 02:51:21;;;;;;;5.13;3.03;;;;;;;17.77;33.43;101717.97;5032058;28;20064;-80
2023/06/01 02:53:54;;;;;;;4.22;2.78;;;;;;;17.73;33.87;101713.78;5023755;28;20055;-80
2023/06/01 02:56:22;;;;;;;7.05;3.80;;;;;;;17.69;33.89;101715.09;5011038;28;20076;-81
2023/06/01 02:59:13;;;;;;;5.15;3.38;;;;;;;17.66;33.62;101718.19;5035920;28;20052;-81
2023/06/01 03:01:48;;;;;;;5.47;3.67;;;;;;;17.65;33.45;101716.44;5021097;28;20124;-80
2023/06/01 03:04:17;;;;;;;5.65;3.60;;;;;;;17.63;33.56;101705.56;5017749;28;20042;-80
2023/06/01 03:06:45;;;;;;;5.13;3.60;;;;;;;17.58;33.99;101712.56;5019563;28;20416;-79
2023/06/01 03:09:22;;;;;;;6.18;3.63;;;;;;;17.55;34.06;101715.69;5037172;28;20046;-80
2023/06/01 03:11:54;;;;;;;6.43;3.70;;;;;;;17.49;33.99;101716.28;5021929;28;20057;-80
2023/06/01 03:14:22;;;;;;;6.22;4.13;;;;;;;17.48;33.88;101717.34;5015127;28;20243;-79
2023/06/01 03:16:50;;;;;;;6.30;3.95;;;;;;;17.44;34.25;101716.78;5010535;28;20115;-80
2023/06/01 03:19:22;;;;;;;6.38;3.80;;;;;;;17.42;34.27;101721.59;5017644;28;20051;-80
2023/06/01 03:21:53;;;;;;;7.03;3.78;;;;;;;17.33;34.33;101722.53;5016425;28;20103;-80
2023/06/01 03:24:27;;;;;;;6.78;4.13;;;;;;;17.32;34.16;101712.50;5019396;28;20513;-80
2023/06/01 03:26:58;;;;;;;6.90;4.15;;;;;;;17.29;34.33;101721.13;5022891;28;20085;-80
2023/06/01 03:29:27;;;;;;;7.45;4.40;;;;;;;17.25;34.45;101728.88;5020163;28;20041;-80
2023/06/01 03:31:55;;;;;;;7.95;4.90;;;;;;;17.21;34.47;101724.69;5035225;28;20053;-79
2023/06/01 03:34:27;;;;;;;8.45;4.72;;;;;;;17.18;34.61;101725.00;5016164;28;20065;-79
2023/06/01 03:36:55;;;;;;;7.70;5.30;;;;;;;17.11;34.73;101723.00;5020104;28;20132;-80
2023/06/01 03:39:22;;;;;;;10.02;5.45;;;;;;;17.03;34.10;101712.75;5019645;28;20504;-80
2023/06/01 03:41:50;;;;;;;8.13;5.10;;;;;;;16.98;34.19;101715.09;5019802;28;20319;-80
2023/06/01 03:44:18;;;;;;;8.73;5.63;;;;;;;16.93;34.32;101722.94;5041674;28;20041;-80
2023/06/01 03:46:47;;;;;;;8.10;4.80;;;;;;;16.88;34.64;101722.56;5020668;28;20065;-79
2023/06/01 03:49:15;;;;;;;7.30;5.32;;;;;;;16.81;34.44;101718.69;5018296;28;20038;-80
2023/06/01 03:51:45;;;;;;;7.78;4.82;;;;;;;16.79;35.10;101729.00;5018962;28;20520;-80
2023/06/01 03:54:13;;;;;;;6.95;4.82;;;;;;;16.74;35.07;101737.78;5021102;28;20041;-80
2023/06/01 03:56:42;;;;;;;7.95;4.97;;;;;;;16.70;35.09;101733.56;5016216;28;20124;-80
2023/06/01 03:59:11;;;;;;;8.25;5.10;;;;;;;16.68;34.78;101740.25;5028647;28;20037;-81
2023/06/01 04:01:42;;;;;;;9.63;5.85;;;;;;;16.63;34.80;101744.38;5018780;28;20429;-81
2023/06/01 04:04:12;;;;;;;9.75;6.75;;;;;;;16.58;35.04;101743.94;5013012;28;20056;-80
2023/06/01 04:06:44;;;;;;;12.02;6.93;;;;;;;16.54;35.43;101748.03;5015053;28;20412;-79
2023/06/01 04:09:15;;;;;;;10.98;7.32;;;;;;;16.51;34.96;101750.22;5015984;28;20512;-81
2023/06/01 04:11:44;;;;;;;11.88;7.28;;;;;;;16.42;35.58;101752.00;5018389;28;20056;-81
2023/06/01 04:14:12;;;;;;;11.02;6.78;;;;;;;16.36;34.96;101749.84;5031100;28;20037;-81
2023/06/01 04:16:41;;;;;;;11.05;7.18;;;;;;;16.32;35.13;101759.47;5012922;28;20611;-79
2023/06/01 04:19:09;;;;;;;11.65;7.10;;;;;;;16.28;35.63;101758.03;5017638;28;20059;-81
2023/06/01 04:21:38;;;;;;;11.55;7.63;;;;;;;16.25;35.39;101759.19;5018152;28;20045;-81
2023/06/01 04:24:06;;;;;;;12.07;7.97;;;;;;;16.21;36.00;101752.22;5016780;28;20417;-80
2023/06/01 04:26:36;;;;;;;13.30;8.55;;;;;;;16.21;35.78;101757.75;5023264;28;20051;-80
2023/06/01 04:29:04;;;;;;;13.45;8.23;;;;;;;16.19;35.80;101754.25;5027110;28;20064;-80
2023/06/01 04:31:32;;;;;;;11.93;7.78;;;;;;;16.17;35.44;101760.94;5030767;28;20049;-79
2023/06/01 04:34:01;;;;;;;9.98;7.55;;;;;;;16.15;35.73;101769.38;5023175;28;20257;-79
2023/06/01 04:36:30;;;;;;;13.23;8.60;;;;;;;16.08;35.84;101759.94;5025906;28;20072;-79
2023/06/01 04:39:04;;;;;;;12.98;8.20;;;;;;;16.05;36.50;101765.75;5019289;28;20041;-79
2023/06/01 04:41:34;;;;;;;12.87;8.03;;;;;;;16.01;36.05;101764.28;5024634;28;20049;-80
2023/06/01 04:44:07;;;;;;;11.43;7.47;;;;;;;16.00;36.48;101768.06;5017711;28;20310;-79
2023/06/01 04:46:39;;;;;;;11.85;7.85;;;;;;;15.90;36.07;101770.00;5018536;28;20049;-79
2023/06/01 04:49:11;;;;;;;10.23;7.45;;;;;;;15.87;36.00;101768.38;5022479;28;20072;-79
2023/06/01 04:51:40;;;;;;;12.20;7.72;;;;;;;15.82;36.52;101770.72;5012836;28;20041;-80
2023/06/01 04:54:09;;;;;;;12.23;7.97;;;;;;;15.78;36.23;101771.16;5035776;28;20084;-80
2023/06/01 04:56:37;;;;;;;11.73;7.90;;;;;;;15.72;36.20;101764.34;5017510;28;20320;-80
2023/06/01 04:59:07;;;;;;;13.30;7.78;;;;;;;15.69;36.69;101770.13;5017227;28;20044;-80
2023/06/01 05:01:34;;;;;;;11.10;7.28;;;;;;;15.62;36.81;101766.22;5015262;28;20076;-81
2023/06/01 05:04:03;;;;;;;11.13;7.72;;;;;;;15.58;36.71;101775.81;5012514;28;20037;-81
2023/06/01 05:06:31;;;;;;;11.07;8.00;;;;;;;15.54;37.06;101779.00;5028017;28;20077;-79
2023/06/01 05:08:59;;;;;;;12.07;8.57;;;;;;;15.47;36.88;101782.34;5023095;28;20920;-81
2023/06/01 05:11:28;;;;;;;12.23;8.05;;;;;;;15.42;36.73;101775.53;5020255;28;20106;-81
2023/06/01 05:14:01;;;;;;;12.55;8.65;;;;;;;15.36;37.11;101765.91;5019537;28;20504;-81
2023/06/01 05:16:31;;;;;;;12.45;8.75;;;;;;;15.32;37.31;101771.84;5015461;28;20410;-80
2023/06/01 05:19:01;;;;;;;10.48;8.07;;;;;;;15.29;36.92;101772.13;5015734;28;20101;-79
2023/06/01 05:21:29;;;;;;;12.18;8.40;;;;;;;15.26;37.07;101766.91;5014308;28;20132;-80
2023/06/01 05:23:57;;;;;;;10.75;8.07;;;;;;;15.22;37.18;101780.09;5034124;28;20100;-81
2023/06/01 05:26:25;;;;;;;12.95;8.32;;;;;;;15.19;37.12;101779.50;5020849;28;20112;-80
2023/06/01 05:28:53;;;;;;;12.50;8.05;;;;;;;15.15;37.40;101776.16;5017541;28;20064;-81
2023/06/01 05:31:21;;;;;;;11.60;8.27;;;;;;;15.13;37.64;101786.47;5018106;28;20080;-81
2023/06/01 05:33:55;;;;;;;15.77;8.52;;;;;;;15.10;37.40;101775.69;5019378;28;20144;-82
2023/06/01 05:36:23;;;;;;;11.48;7.45;;;;;;;15.06;37.11;101783.41;5008395;28;20413;-81
2023/06/01 05:38:51;;;;;;;14.35;8.32;;;;;;;15.02;37.42;101781.06;5019486;28;20037;-80
2023/06/01 05:41:19;;;;;;;13.63;9.20;;;;;;;15.00;37.32;101772.06;5012515;28;20124;-81
2023/06/01 05:43:48;;;;;;;12.35;8.25;;;;;;;14.97;37.44;101773.22;5013412;28;20050;-81
2023/06/01 05:46:15;;;;;;;13.85;8.75;;;;;;;14.94;37.47;101769.84;5009633;28;20069;-79
2023/06/01 05:48:43;;;;;;;13.82;9.18;;;;;;;14.92;38.00;101774.66;5018021;28;20520;-81
2023/06/01 05:51:15;;;;;;;11.18;8.50;;;;;;;14.92;37.98;101778.28;5019708;28;20546;-79
2023/06/01 05:53:43;;;;;;;11.60;8.40;;;;;;;14.90;37.64;101782.19;5024321;28;20556;-79
2023/06/01 05:56:11;;;;;;;11.07;8.05;;;;;;;14.87;38.02;101777.81;5021992;28;20421;-79
2023/06/01 05:58:39;;;;;;;12.00;8.30;;;;;;;14.85;37.63;101781.75;5017087;28;20615;-80
2023/06/01 06:01:09;;;;;;;13.35;8.27;;;;;;;14.83;38.25;101781.03;5025783;28;20045;-80
2023/06/01 06:03:38;;;;;;;13.80;9.02;;;;;;;14.82;38.18;101782.03;5015626;28;20425;-81
2023/06/01 06:06:06;;;;;;;11.98;8.35;;;;;;;14.81;37.71;101785.78;5008766;28;20116;-80
2023/06/01 06:08:35;;;;;;;13.52;8.35;;;;;;;14.79;37.86;101785.03;5013571;28;20049;-79
2023/06/01 06:11:03;;;;;;;14.57;9.35;;;;;;;14.71;37.91;101794.88;5010435;28;20068;-80
2023/06/01 06:13:31;;;;;;;12.48;8.93;;;;;;;14.70;38.16;101795.03;5027029;28;20085;-79
2023/06/01 06:15:59;;;;;;;13.05;8.30;;;;;;;14.70;38.04;101795.91;5022152;28;20149;-78
2023/06/01 06:18:27;;;;;;;11.88;8.32;;;;;;;14.69;37.96;101805.16;5013576;28;20049;-79
2023/06/01 06:20:55;;;;;;;12.68;9.18;;;;;;;14.68;37.74;101800.66;5021066;28;20140;-78
2023/06/01 06:23:23;;;;;;;12.52;8.63;;;;;;;14.67;38.24;101809.97;5019949;28;20126;-79
2023/06/01 06:25:52;;;;;;;12.98;8.80;;;;;;;14.64;38.03;101801.97;5044656;28;20079;-80
2023/06/01 06:28:21;;;;;;;12.18;8.27;;;;;;;14.64;38.22;101801.09;5026395;28;20049;-80
2023/06/01 06:30:49;;;;;;;12.98;8.60;;;;;;;14.62;37.94;101798.47;5038914;28;20083;-80
2023/06/01 06:33:17;;;;;;;11.15;7.68;;;;;;;14.62;37.66;101806.72;5025427;28;20075;-80
2023/06/01 06:35:45;;;;;;;13.00;8.80;;;;;;;14.61;37.61;101799.47;5020063;28;20056;-80
2023/06/01 06:38:13;;;;;;;12.77;9.90;;;;;;;14.59;37.86;101806.16;5017253;28;20057;-79
2023/06/01 06:40:41;;;;;;;14.48;9.63;;;;;;;14.59;38.05;101801.53;5012937;28;20041;-80
2023/06/01 06:43:13;;;;;;;13.25;9.32;;;;;;;14.61;37.93;101793.09;5015341;28;20473;-80
2023/06/01 06:45:42;;;;;;;12.52;8.18;;;;;;;14.61;37.71;101798.59;5020238;28;20056;-80
2023/06/01 06:48:10;;;;;;;14.23;9.63;;;;;;;14.59;37.74;101804.28;5021800;28;20045;-80
2023/06/01 06:50:41;;;;;;;15.52;9.80;;;;;;;14.58;38.03;101805.28;5032041;28;20088;-80
2023/06/01 06:53:09;;;;;;;13.35;9.18;;;;;;;14.59;37.71;101807.03;5039698;28;20037;-80
2023/06/01 06:55:37;;;;;;;14.20;9.57;;;;;;;14.60;37.63;101803.22;5023581;28;20077;-80
2023/06/01 06:58:04;;;;;;;12.95;9.43;;;;;;;14.59;37.67;101803.41;5022161;28;20053;-79
2023/06/01 07:00:34;;;;;;;14.70;10.77;;;;;;;14.61;37.75;101802.22;5026748;28;20496;-82
2023/06/01 07:03:02;;;;;;;14.70;9.85;;;;;;;14.61;37.62;101812.38;5019909;28;20130;-78
2023/06/01 07:05:31;;;;;;;15.27;10.73;;;;;;;14.61;37.96;101813.25;5023067;28;20128;-80
2023/06/01 07:07:59;;;;;;;14.93;9.98;;;;;;;14.67;37.57;101814.59;5051313;23;20057;-65
2023/06/01 07:10:27;;;;;;;12.65;9.18;;;;;;;14.72;37.63;101810.41;5047298;28;20048;-65
2023/06/01 07:12:54;;;;;;;13.63;9.88;;;;;;;14.73;37.62;101814.03;5043733;28;20049;-65
2023/06/01 07:15:22;;;;;;;13.20;9.57;;;;;;;14.78;37.82;101808.97;5041608;28;20088;-65
2023/06/01 07:17:52;;;;;;;12.85;10.00;;;;;;;14.85;37.71;101806.56;5048275;28;20617;-66
2023/06/01 07:20:20;;;;;;;15.82;10.15;;;;;;;14.89;38.02;101803.38;5045946;28;20044;-66
2023/06/01 07:22:49;;;;;;;13.07;10.00;;;;;;;14.95;37.64;101801.94;5048518;28;20522;-65
2023/06/01 07:25:17;;;;;;;13.90;9.93;;;;;;;15.02;37.64;101800.34;5046736;28;20057;-66
2023/06/01 07:27:48;;;;;;;13.10;8.93;;;;;;;15.11;37.58;101816.06;5048657;28;20041;-66
2023/06/01 07:30:16;;;;;;;13.15;9.70;;;;;;;15.21;37.99;101813.31;5047055;28;20446;-66
2023/06/01 07:32:44;;;;;;;12.90;9.40;;;;;;;15.30;37.95;101815.25;5030225;28;20052;-65
2023/06/01 07:35:13;;;;;;;13.23;9.07;;;;;;;15.43;37.65;101818.63;5046856;28;20048;-66
2023/06/01 07:37:41;;;;;;;11.68;8.65;;;;;;;15.53;37.69;101814.00;5046578;28;20349;-66
2023/06/01 07:40:11;;;;;;;13.52;9.57;;;;;;;15.65;37.67;101814.75;5046428;28;20044;-66
2023/06/01 07:42:39;;;;;;;13.18;9.13;;;;;;;15.76;37.44;101809.06;5047719;28;20072;-66
2023/06/01 07:45:09;;;;;;;12.65;9.60;;;;;;;15.91;37.05;101815.91;5047077;28;20136;-66
2023/06/01 07:47:36;;;;;;;13.18;9.10;;;;;;;16.01;36.75;101811.22;5048202;28;20060;-66
2023/06/01 07:50:06;;;;;;;13.57;9.23;;;;;;;16.13;37.11;101810.06;5046857;28;20055;-66
2023/06/01 07:52:35;;;;;;;13.63;9.85;;;;;;;16.26;36.87;101815.28;5047430;28;20045;-66
2023/06/01 07:55:04;;;;;;;11.88;8.60;;;;;;;16.38;36.90;101814.13;5046357;28;20348;-58
2023/06/01 07:57:32;;;;;;;9.63;7.60;;;;;;;16.50;36.29;101809.28;5047838;28;20049;-58
2023/06/01 08:00:00;;;;;;;11.13;7.65;;;;;;;16.63;36.80;101812.59;5046128;28;20102;-59
2023/06/01 08:02:36;;;;;;;11.73;8.75;;;;;;;16.73;36.50;101807.03;5047836;28;20179;-59
2023/06/01 08:05:06;;;;;;;11.23;8.88;;;;;;;16.89;36.29;101796.19;5047046;28;20098;-59
2023/06/01 08:07:37;;;;;;;13.82;9.30;;;;;;;17.01;35.95;101798.63;5046920;28;20045;-58
2023/06/01 08:10:06;;;;;;;12.57;8.65;;;;;;;17.14;36.02;101803.81;5046853;28;20045;-59
2023/06/01 08:12:34;;;;;;;11.93;8.65;;;;;;;17.26;36.15;101807.22;5048209;28;20041;-59
2023/06/01 08:15:03;;;;;;;14.90;9.23;;;;;;;17.39;35.67;101811.38;5046292;28;20467;-61
2023/06/01 08:17:31;;;;;;;12.68;9.30;;;;;;;17.52;35.61;101802.66;5050463;28;20123;-61
2023/06/01 08:19:59;;;;;;;12.00;9.02;;;;;;;17.65;35.24;101797.59;5050023;28;20124;-60
2023/06/01 08:22:28;;;;;;;12.13;9.30;;;;;;;17.78;35.01;101791.72;5051796;28;20182;-63
2023/06/01 08:24:59;;;;;;;15.02;10.30;;;;;;;17.90;34.32;101801.50;5050026;28;20041;-62
2023/06/01 08:27:27;;;;;;;12.55;9.57;;;;;;;17.98;34.26;101795.16;5050919;28;20139;-59
2023/06/01 08:29:55;;;;;;;13.02;9.68;;;;;;;18.08;33.80;101796.81;5050458;28;20626;-57
2023/06/01 08:32:23;;;;;;;11.80;8.68;;;;;;;18.19;33.79;101792.03;5050071;28;20114;-59
2023/06/01 08:34:51;;;;;;;9.70;8.05;;;;;;;18.27;33.70;101790.22;5050769;28;20084;-58
2023/06/01 08:37:19;;;;;;;12.02;8.07;;;;;;;18.36;33.85;101793.91;5050170;28;20048;-59
2023/06/01 08:39:47;;;;;;;12.50;9.10;;;;;;;18.43;33.79;101790.31;5051042;28;20094;-59
2023/06/01 08:42:25;;;;;;;10.10;7.30;;;;;;;18.56;33.33;101787.13;5049640;28;20128;-58
2023/06/01 08:44:55;;;;;;;10.75;7.97;;;;;;;18.64;33.53;101777.97;5050840;28;20508;-57
2023/06/01 08:47:25;;;;;;;10.73;7.47;;;;;;;18.75;33.26;101781.34;5050103;28;20443;-59
2023/06/01 08:49:54;;;;;;;9.77;7.30;;;;;;;18.84;33.86;101773.94;5050291;28;20492;-59
2023/06/01 08:52:23;;;;;;;9.70;7.60;;;;;;;18.95;33.32;101783.88;5049640;28;20049;-59
2023/06/01 08:54:53;;;;;;;10.43;7.75;;;;;;;19.03;32.83;101779.22;5050164;28;20099;-60
2023/06/01 08:57:22;;;;;;;10.48;7.60;;;;;;;19.15;32.69;101775.09;5031869;28;20049;-60
2023/06/01 08:59:50;;;;;;;8.82;7.30;;;;;;;19.20;32.79;101771.81;5050730;28;20523;-60
2023/06/01 09:02:18;;;;;;;10.63;6.82;;;;;;;19.29;32.70;101761.66;5049212;28;20106;-55
2023/06/01 09:04:46;;;;;;;10.02;7.15;;;;;;;19.38;32.31;101761.47;5049045;28;20477;-59
2023/06/01 09:07:14;;;;;;;10.70;7.07;;;;;;;19.47;32.33;101762.34;5049271;28;20076;-56
2023/06/01 09:09:43;;;;;;;8.27;6.72;;;;;;;19.55;32.17;101763.22;5049986;28;20322;-56
2023/06/01 09:12:25;;;;;;;9.05;6.82;;;;;;;19.70;31.72;101765.34;5048959;28;20095;-60
2023/06/01 09:15:11;;;;;;;12.90;8.68;;;;;;;19.76;30.67;101750.78;5050412;28;20416;-60
2023/06/01 09:17:40;;;;;;;10.75;8.23;;;;;;;19.85;31.90;101747.81;5050557;28;20045;-60
2023/06/01 09:20:13;;;;;;;10.65;7.97;;;;;;;19.97;31.58;101754.78;5048321;28;20087;-62
2023/06/01 09:22:41;;;;;;;;;;;;;;;19.74;32.00;101750.06;5050541;28;20090;-61
2023/06/01 09:25:10;;;;;;;10.98;8.07;;;;;;;20.10;31.84;101745.06;5048661;28;20290;-60
2023/06/01 09:27:47;;;;;;;11.68;8.95;;;;;;;20.27;30.94;101750.41;5049412;28;20045;-58
2023/06/01 09:30:17;;;;;;;12.68;9.88;;;;;;;20.34;30.97;101745.00;5048798;28;20110;-57
2023/06/01 09:32:50;;;;;;;13.77;10.50;;;;;;;20.43;30.89;101743.97;5044998;28;20148;-57
2023/06/01 09:35:38;;;;;;;11.50;8.85;;;;;;;20.52;30.44;101739.25;5044400;28;20504;-57
2023/06/01 09:38:06;;;;;;;13.43;10.27;;;;;;;20.59;30.61;101740.28;5047188;28;20037;-58
2023/06/01 09:40:34;;;;;;;11.98;9.25;;;;;;;20.68;30.54;101733.66;5046051;28;20510;-59
2023/06/01 09:43:04;;;;;;;12.05;9.13;;;;;;;20.77;30.48;101730.66;5046642;28;20496;-59
2023/06/01 09:45:32;;;;;;;12.23;9.43;;;;;;;20.82;30.39;101727.31;5046697;28;20057;-59
2023/06/01 09:48:16;;;;;;;12.88;10.52;;;;;;;20.94;30.12;101736.16;5047483;28;20033;-57
2023/06/01 09:50:45;;;;;;;14.40;11.02;;;;;;;20.98;30.44;101720.81;5043701;28;20500;-59
2023/06/01 09:53:13;;;;;;;13.98;11.20;;;;;;;21.08;30.44;101727.03;5046043;28;20045;-59
2023/06/01 09:55:57;;;;;;;16.17;13.05;;;;;;;21.19;29.48;101725.75;5046598;28;20080;-59
2023/06/01 09:58:27;;;;;;;15.77;12.80;;;;;;;21.29;29.44;101729.19;5028699;28;20523;-57
2023/06/01 10:00:59;;;;;;;16.40;11.90;;;;;;;21.33;29.08;101719.41;5046143;28;20057;-59
2023/06/01 10:03:28;;;;;;;13.82;11.57;;;;;;;21.39;29.74;101715.88;5042295;28;20589;-58
2023/06/01 10:05:58;;;;;;;13.77;11.38;;;;;;;21.48;29.94;101726.78;5045829;28;20478;-55
2023/06/01 10:08:28;;;;;;;13.98;11.85;;;;;;;21.55;29.70;101724.13;5044165;28;20079;-56
2023/06/01 10:10:56;;;;;;;15.60;12.82;;;;;;;21.62;29.42;101725.09;5042939;28;20112;-56
2023/06/01 10:13:24;;;;;;;17.27;13.40;;;;;;;21.70;29.47;101711.09;5040786;28;20056;-60
2023/06/01 10:15:55;;;;;;;16.92;12.88;;;;;;;21.81;29.13;101716.25;5045772;28;20614;-59
2023/06/01 10:18:23;;;;;;;14.60;12.25;;;;;;;21.88;29.26;101705.22;5042908;28;20052;-59
2023/06/01 10:20:52;;;;;;;14.77;11.50;;;;;;;21.99;29.09;101715.06;5044791;28;20049;-57
2023/06/01 10:23:20;;;;;;;15.82;11.50;;;;;;;22.08;29.34;101705.59;5046743;28;20075;-58
2023/06/01 10:26:06;;;;;;;13.82;11.18;;;;;;;22.20;28.72;101707.69;5043321;28;20059;-59
2023/06/01 10:28:36;;;;;;;14.02;11.77;;;;;;;22.31;28.42;101706.38;5045830;28;20095;-58
2023/06/01 10:31:36;;;;;;;15.93;12.20;;;;;;;22.41;27.99;101700.50;5043572;28;20041;-57
2023/06/01 10:34:05;;;;;;;16.23;12.82;;;;;;;22.47;28.08;101705.31;5040714;28;20049;-59
2023/06/01 10:37:10;;;;;;;16.83;12.95;;;;;;;22.54;27.20;101698.81;5046812;28;20056;-56
2023/06/01 10:39:39;;;;;;;15.57;12.35;;;;;;;22.60;27.71;101697.16;5040777;28;20094;-57
2023/06/01 10:42:35;;;;;;;15.63;12.18;;;;;;;22.66;27.05;101689.94;5044364;28;20037;-58
2023/06/01 10:45:04;;;;;;;13.48;10.65;;;;;;;22.70;27.91;101696.84;5040521;28;20548;-59
2023/06/01 10:47:50;;;;;;;14.20;11.27;;;;;;;22.77;27.07;101703.38;5046560;28;20516;-59
2023/06/01 10:50:19;;;;;;;14.05;10.48;;;;;;;22.81;27.45;101688.88;5043668;28;20091;-59
2023/06/01 10:52:47;;;;;;;11.73;9.35;;;;;;;22.87;27.32;101702.03;5046149;28;20475;-59
2023/06/01 10:55:24;;;;;;;12.98;10.27;;;;;;;22.97;26.98;101705.41;5045033;28;20167;-57
2023/06/01 10:58:21;;;;;;;12.52;9.93;;;;;;;23.03;26.50;101698.16;5045177;28;20543;-60
2023/06/01 11:00:49;;;;;;;11.88;9.40;;;;;;;23.08;26.98;101700.38;5042936;28;20106;-58
2023/06/01 11:03:46;;;;;;;13.80;10.45;;;;;;;23.11;25.93;101697.16;5045363;28;20045;-59
2023/06/01 11:06:25;;;;;;;11.80;9.18;;;;;;;23.20;25.62;101693.22;5042838;28;20536;-59
2023/06/01 11:08:56;;;;;;;11.02;8.82;;;;;;;23.20;26.45;101691.31;5045050;28;20408;-60
2023/06/01 11:12:00;;;;;;;10.20;7.93;;;;;;;23.19;26.23;101675.59;5043809;28;20048;-59
2023/06/01 11:14:31;;;;;;;9.20;7.55;;;;;;;23.25;26.48;101688.75;5026772;28;20059;-59
2023/06/01 11:17:28;;;;;;;10.98;7.55;;;;;;;23.28;25.51;101688.38;5039289;28;20051;-62
2023/06/01 11:20:05;;;;;;;8.57;6.38;;;;;;;23.32;25.69;101686.94;5041685;28;20051;-66
2023/06/01 11:22:37;;;;;;;8.68;5.88;;;;;;;23.34;25.90;101675.53;5042477;28;20049;-60
2023/06/01 11:25:09;;;;;;;7.82;5.97;;;;;;;23.35;26.17;101672.56;5043204;28;20032;-60
2023/06/01 11:27:37;;;;;;;6.53;4.70;;;;;;;23.35;26.56;101663.31;5041299;28;20061;-59
2023/06/01 11:30:06;;;;;;;6.80;5.00;;;;;;;23.41;26.46;101662.53;5041044;28;20033;-61
2023/06/01 11:32:36;;;;;;;8.50;5.40;;;;;;;23.45;25.89;101666.63;5040218;28;20053;-61
2023/06/01 11:35:18;;;;;;;8.52;5.85;;;;;;;23.49;25.19;101658.72;5041998;28;20114;-61